METAR Data
IDs: Format: Raw Decoded Include TAF

Data at: 1259 UTC 07 Oct 2022

Region: TOP
KATL 071252Z 00000KT 10SM CLR 17/09 A3018 RMK AO2 SLP215 T01720089

KBOS 071254Z 22008KT 10SM SCT110 BKN160 BKN250 17/12 A2993 RMK AO2 SLP134 T01720122 $

KBWI 071254Z 23005KT 10SM CLR 17/10 A3004 RMK AO2 SLP172 T01670100

KCLE 071251Z 34010KT 10SM BKN022 BKN031 OVC060 11/07 A3014 RMK AO2 SLP220 T01110072

KCLT 071152Z 33003KT 10SM CLR 12/11 A3013 RMK SLP199 T01170106 10150 20106 53012

KCVG 071252Z 35011KT 10SM SCT043 BKN055 11/08 A3019 RMK AO2 SLP219 T01110083

KDCA 071252Z 18004KT 9SM CLR 16/12 A3007 RMK AO2 SLP180 T01560122

KDEN 071253Z 09009KT 10SM OVC008 03/01 A3048 RMK AO2 SLP290 T00330011

KDFW 071253Z 34005KT 10SM FEW100 BKN250 20/11 A3021 RMK AO2 SLP221 T02000111

KDTW 071253Z 34012G17KT 10SM OVC025 07/02 A3022 RMK AO2 SLP235 T00720022

KEWR 071251Z 20004KT 10SM FEW130 FEW250 18/13 A2997 RMK AO2 SLP150 T01830133

KFLL 071253Z 36006KT 10SM FEW030 FEW055 26/18 A3010 RMK AO2 SLP191 T02560183

KIAD 071252Z 00000KT 10SM CLR 14/12 A3006 RMK AO2 SLP178 T01390117

KIAH 071253Z 00000KT 10SM FEW060 SCT250 19/16 A3019 RMK AO2 SLP222 T01940161

KJFK 071251Z 25007KT 10SM FEW085 FEW250 17/14 A2998 RMK AO2 SLP153 T01720139

KLAS 071256Z 19004KT 10SM CLR 21/03 A3014 RMK AO2 SLP185 T02110028

KLAX 071253Z VRB03KT 5SM HZ FEW009 OVC012 20/17 A3003 RMK AO2 SLP168 T02000172

KLGA 071251Z 30005KT 10SM SCT250 18/11 A2997 RMK AO2 SLP148 T01830111

KMCO 071253Z 36003KT 10SM CLR 22/18 A3016 RMK AO2 SLP211 T02170178

KMDW 071253Z 34013KT 10SM BKN017 BKN030 BKN035 08/03 A3034 RMK AO2 SLP274 T00830028

KMEM 071254Z 00000KT 10SM BKN250 17/12 A3022 RMK AO2 SLP230 T01720122

KMIA 071253Z VRB04KT 10SM FEW038 FEW070 27/19 A3010 RMK AO2 SLP193 T02670189

KMSP 071253Z 36007KT 10SM BKN013 OVC065 06/03 A3053 RMK AO2 SLP346 T00560028

KORD 071251Z 34010KT 10SM FEW018 BKN026 07/03 A3034 RMK AO2 SLP275 T00720028

KPDX 071253Z 26003KT 7SM MIFG FEW010 12/11 A3018 RMK AO2 SLP217 T01220111

KPHL 071254Z 23008KT 10SM CLR 17/12 A3002 RMK AO2 SLP166 T01670122

KPHX 071251Z 08008KT 10SM FEW140 SCT250 24/10 A3004 RMK AO2 SLP155 T02440100 $

KPIT 071251Z 33008KT 7SM -DZ BKN008 OVC014 12/11 A3009 RMK AO2 DZB26 SLP197 P0000 T01220106

KSAN 071251Z 35004KT 9SM FEW010 19/17 A3004 RMK AO2 SLP172 T01890167

KSEA 071253Z 17003KT 6SM BR SCT250 12/11 A3019 RMK AO2 SLP229 T01220111

KSFO 071256Z 30007KT 10SM FEW002 12/11 A3008 RMK AO2 SLP185 T01170111

KSLC 071254Z 15005KT 10SM CLR 12/03 A3029 RMK AO2 SLP221 T01220033

KSTL 071251Z 35005KT 10SM FEW120 FEW250 11/06 A3034 RMK AO2 SLP269 T01060061 $

KTPA 071253Z 00000KT 10SM FEW055 23/17 A3016 RMK AO2 SLP212 T02280167